createdAt,value
2023-05-25T00:01:02.029Z,3.70
2023-05-25T00:01:54.268Z,3.70
2023-05-25T00:02:52.421Z,3.70
2023-05-25T00:03:52.383Z,3.80
2023-05-25T00:04:52.246Z,3.60
2023-05-25T00:05:52.241Z,4.00
2023-05-25T00:06:52.215Z,3.70
2023-05-25T00:07:52.195Z,3.50
2023-05-25T00:08:52.669Z,3.60
2023-05-25T00:10:25.807Z,4.20
2023-05-25T00:10:52.194Z,4.10
2023-05-25T00:11:52.185Z,3.90
2023-05-25T00:12:52.188Z,3.90
2023-05-25T00:13:52.166Z,4.20
2023-05-25T00:14:52.203Z,3.80
2023-05-25T00:15:52.166Z,3.90
2023-05-25T00:16:52.194Z,3.90
2023-05-25T00:17:52.219Z,4.20
2023-05-25T00:18:52.120Z,4.30
2023-05-25T00:19:52.192Z,3.80
2023-05-25T00:20:52.130Z,4.30
2023-05-25T00:21:52.104Z,4.10
2023-05-25T00:22:52.100Z,4.10
2023-05-25T00:23:52.138Z,4.30
2023-05-25T00:24:52.112Z,3.90
2023-05-25T00:25:52.064Z,4.00
2023-05-25T00:26:52.081Z,4.40
2023-05-25T00:27:52.050Z,4.30
2023-05-25T00:28:52.070Z,4.50
2023-05-25T00:29:52.068Z,4.80
2023-05-25T00:30:52.052Z,4.50
2023-05-25T00:31:52.018Z,4.80
2023-05-25T00:32:52.051Z,4.50
2023-05-25T00:33:52.026Z,4.60
2023-05-25T00:34:51.995Z,5.10
2023-05-25T00:35:51.996Z,5.20
2023-05-25T00:36:51.982Z,5.10
2023-05-25T00:37:51.970Z,5.10
2023-05-25T00:38:52.008Z,4.90
2023-05-25T00:39:51.967Z,4.90
2023-05-25T00:40:51.952Z,4.90
2023-05-25T00:41:51.944Z,5.10
2023-05-25T00:42:51.984Z,4.70
2023-05-25T00:43:51.960Z,4.80
2023-05-25T00:44:51.959Z,4.50
2023-05-25T00:45:51.938Z,4.90
2023-05-25T00:46:52.091Z,4.70
2023-05-25T00:47:52.015Z,4.90
2023-05-25T00:48:51.923Z,4.70
2023-05-25T00:49:51.893Z,4.80
2023-05-25T00:50:51.894Z,4.70
2023-05-25T00:51:51.880Z,4.80
2023-05-25T00:52:51.898Z,4.80
2023-05-25T00:53:51.890Z,4.50
2023-05-25T00:54:51.870Z,5.20
2023-05-25T00:55:51.914Z,5.20
2023-05-25T00:56:51.898Z,6.10
2023-05-25T00:57:51.929Z,5.80
2023-05-25T00:58:51.852Z,6.70
2023-05-25T00:59:51.811Z,6.60
2023-05-25T01:00:51.832Z,6.60
2023-05-25T01:01:51.868Z,6.30
2023-05-25T01:02:51.863Z,6.40
2023-05-25T01:03:51.847Z,6.10
2023-05-25T01:04:51.775Z,6.00
2023-05-25T01:05:51.784Z,5.90
2023-05-25T01:06:51.827Z,5.60
2023-05-25T01:07:51.759Z,5.70
2023-05-25T01:08:51.759Z,6.00
2023-05-25T01:09:51.745Z,5.60
2023-05-25T01:10:51.721Z,5.30
2023-05-25T01:11:51.742Z,5.50
2023-05-25T01:12:51.718Z,5.20
2023-05-25T01:13:51.703Z,5.10
2023-05-25T01:14:51.703Z,5.30
2023-05-25T01:15:51.722Z,5.40
2023-05-25T01:16:51.916Z,5.50
2023-05-25T01:17:51.697Z,5.30
2023-05-25T01:18:51.675Z,5.00
2023-05-25T01:20:08.278Z,5.20
2023-05-25T01:20:53.707Z,5.20
2023-05-25T01:21:51.680Z,5.00
2023-05-25T01:22:51.652Z,5.00
2023-05-25T01:23:51.648Z,4.80
2023-05-25T01:24:51.629Z,5.10
2023-05-25T01:25:51.670Z,5.10
2023-05-25T01:26:51.613Z,5.10
2023-05-25T01:27:51.593Z,5.00
2023-05-25T01:28:51.587Z,5.20
2023-05-25T01:29:51.601Z,5.30
2023-05-25T01:30:51.613Z,5.20
2023-05-25T01:31:51.634Z,4.80
2023-05-25T01:32:51.606Z,5.30
2023-05-25T01:33:51.622Z,5.10
2023-05-25T01:34:51.588Z,5.00
2023-05-25T01:35:51.578Z,5.10
2023-05-25T01:36:51.537Z,4.80
2023-05-25T01:37:51.523Z,5.00
2023-05-25T01:38:51.534Z,5.00
2023-05-25T01:39:51.570Z,5.10
2023-05-25T01:40:51.507Z,5.10
2023-05-25T01:41:51.495Z,5.20
2023-05-25T01:42:51.500Z,5.30
2023-05-25T01:43:51.494Z,5.00
2023-05-25T01:44:51.499Z,5.20
2023-05-25T01:45:51.502Z,5.10
2023-05-25T01:46:51.479Z,5.60
2023-05-25T01:47:51.518Z,5.20
2023-05-25T01:48:51.452Z,5.10
2023-05-25T01:49:51.473Z,5.50
2023-05-25T01:50:51.425Z,5.20
2023-05-25T01:51:51.449Z,5.10
2023-05-25T01:52:51.407Z,5.50
2023-05-25T01:53:51.457Z,5.60
2023-05-25T01:54:51.423Z,5.80
2023-05-25T01:55:51.386Z,5.60
2023-05-25T01:56:51.388Z,5.70
2023-05-25T01:57:51.387Z,5.40
2023-05-25T01:58:51.414Z,5.50
2023-05-25T01:59:51.407Z,5.20
2023-05-25T02:00:51.348Z,5.40
2023-05-25T02:01:53.165Z,5.30
2023-05-25T02:02:52.380Z,5.40
2023-05-25T02:03:51.398Z,5.10
2023-05-25T02:04:51.320Z,4.90
2023-05-25T02:05:51.312Z,4.90
2023-05-25T02:06:51.299Z,5.10
2023-05-25T02:07:51.324Z,5.00
2023-05-25T02:08:51.314Z,5.10
2023-05-25T02:09:51.336Z,5.10
2023-05-25T02:10:51.267Z,4.90
2023-05-25T02:11:51.269Z,4.40
2023-05-25T02:12:51.284Z,4.70
2023-05-25T02:13:51.281Z,4.60
2023-05-25T02:14:51.253Z,4.40
2023-05-25T02:15:51.265Z,4.50
2023-05-25T02:16:51.235Z,4.90
2023-05-25T02:17:51.308Z,4.60
2023-05-25T02:18:51.224Z,4.50
2023-05-25T02:19:51.235Z,4.50
2023-05-25T02:20:51.245Z,4.70
2023-05-25T02:21:51.196Z,4.50
2023-05-25T02:22:51.227Z,4.70
2023-05-25T02:23:51.182Z,4.70
2023-05-25T02:24:51.165Z,4.30
2023-05-25T02:25:51.166Z,4.40
2023-05-25T02:26:51.180Z,4.80
2023-05-25T02:27:51.187Z,4.30
2023-05-25T02:28:51.138Z,5.00
2023-05-25T02:29:51.129Z,4.60
2023-05-25T02:30:51.125Z,4.90
2023-05-25T02:31:51.185Z,4.80
2023-05-25T02:32:51.118Z,4.70
2023-05-25T02:33:51.101Z,4.60
2023-05-25T02:34:51.094Z,5.00
2023-05-25T02:35:51.115Z,4.90
2023-05-25T02:36:51.136Z,4.50
2023-05-25T02:37:51.405Z,4.60
2023-05-25T02:38:52.066Z,4.70
2023-05-25T02:39:51.069Z,4.50
2023-05-25T02:40:51.081Z,4.50
2023-05-25T02:41:51.060Z,4.90
2023-05-25T02:42:51.040Z,4.90
2023-05-25T02:43:51.063Z,6.40
2023-05-25T02:44:51.071Z,6.70
2023-05-25T02:45:51.025Z,6.60
2023-05-25T02:46:51.154Z,6.90
2023-05-25T02:47:51.047Z,6.10
2023-05-25T02:48:51.097Z,5.40
2023-05-25T02:49:51.034Z,4.90
2023-05-25T02:50:50.999Z,4.90
2023-05-25T02:51:50.960Z,4.90
2023-05-25T02:52:50.954Z,4.60
2023-05-25T02:53:51.014Z,4.60
2023-05-25T02:54:50.944Z,4.50
2023-05-25T02:55:50.942Z,4.60
2023-05-25T02:56:50.936Z,4.60
2023-05-25T02:57:50.925Z,4.30
2023-05-25T02:58:50.936Z,4.80
2023-05-25T02:59:50.916Z,4.40
2023-05-25T03:00:51.015Z,4.30
2023-05-25T03:01:50.920Z,4.40
2023-05-25T03:02:50.919Z,4.50
2023-05-25T03:03:50.932Z,4.40
2023-05-25T03:04:50.871Z,4.50
2023-05-25T03:05:50.862Z,4.80
2023-05-25T03:06:50.853Z,4.60
2023-05-25T03:07:50.884Z,4.70
2023-05-25T03:08:50.870Z,4.80
2023-05-25T03:09:50.847Z,5.00
2023-05-25T03:10:50.832Z,4.80
2023-05-25T03:11:50.816Z,4.90
2023-05-25T03:12:50.841Z,4.80
2023-05-25T03:13:50.806Z,4.90
2023-05-25T03:14:50.800Z,5.90
2023-05-25T03:15:50.801Z,5.50
2023-05-25T03:16:53.623Z,5.70
2023-05-25T03:17:51.904Z,5.60
2023-05-25T03:18:50.783Z,5.80
2023-05-25T03:19:50.860Z,5.90
2023-05-25T03:20:50.772Z,6.10
2023-05-25T03:21:50.740Z,6.10
2023-05-25T03:22:50.769Z,6.40
2023-05-25T03:23:50.737Z,6.40
2023-05-25T03:24:50.722Z,6.00
2023-05-25T03:25:50.713Z,6.40
2023-05-25T03:26:50.727Z,6.80
2023-05-25T03:27:50.772Z,6.60
2023-05-25T03:28:50.703Z,6.60
2023-05-25T03:29:50.682Z,7.00
2023-05-25T03:30:50.673Z,6.90
2023-05-25T03:31:50.844Z,7.60
2023-05-25T03:32:50.894Z,6.50
2023-05-25T03:33:50.667Z,7.00
2023-05-25T03:34:50.645Z,7.00
2023-05-25T03:35:50.666Z,7.00
2023-05-25T03:36:50.662Z,6.80
2023-05-25T03:37:50.649Z,7.60
2023-05-25T03:38:50.630Z,7.90
2023-05-25T03:39:50.612Z,7.50
2023-05-25T03:40:50.598Z,7.40
2023-05-25T03:41:50.618Z,8.00
2023-05-25T03:42:50.585Z,7.90
2023-05-25T03:43:50.584Z,8.00
2023-05-25T03:44:50.575Z,7.90
2023-05-25T03:45:50.646Z,7.70
2023-05-25T03:46:50.584Z,7.90
2023-05-25T03:47:50.578Z,7.60
2023-05-25T03:48:50.563Z,7.20
2023-05-25T03:49:50.546Z,7.10
2023-05-25T03:50:50.552Z,7.10
2023-05-25T03:51:50.519Z,7.20
2023-05-25T03:52:50.520Z,7.20
2023-05-25T03:53:50.503Z,7.30
2023-05-25T03:54:50.496Z,7.40
2023-05-25T03:55:50.516Z,7.30
2023-05-25T03:56:50.487Z,7.40
2023-05-25T03:57:50.477Z,7.40
2023-05-25T03:58:50.473Z,7.90
2023-05-25T03:59:50.460Z,7.40
2023-05-25T04:00:50.474Z,7.80
2023-05-25T04:01:50.452Z,7.70
2023-05-25T04:02:50.558Z,8.10
2023-05-25T04:03:50.575Z,8.10
2023-05-25T04:04:50.595Z,8.30
2023-05-25T04:05:50.445Z,7.80
2023-05-25T04:06:50.439Z,8.60
2023-05-25T04:07:50.398Z,8.30
2023-05-25T04:08:50.401Z,8.40
2023-05-25T04:09:50.406Z,8.40
2023-05-25T04:10:50.385Z,8.40
2023-05-25T04:11:50.371Z,8.30
2023-05-25T04:12:50.361Z,8.10
2023-05-25T04:13:50.391Z,8.40
2023-05-25T04:14:50.387Z,8.50
2023-05-25T04:15:50.441Z,8.60
2023-05-25T04:16:50.405Z,8.20
2023-05-25T04:17:50.329Z,8.20
2023-05-25T04:18:50.400Z,8.10
2023-05-25T04:19:50.440Z,8.20
2023-05-25T04:20:50.306Z,8.20
2023-05-25T04:21:50.291Z,8.40
2023-05-25T04:22:50.329Z,8.70
2023-05-25T04:23:50.312Z,8.70
2023-05-25T04:24:50.258Z,9.80
2023-05-25T04:25:51.294Z,8.80
2023-05-25T04:26:50.258Z,8.90
2023-05-25T04:27:50.276Z,8.80
2023-05-25T04:28:50.283Z,8.60
2023-05-25T04:29:50.236Z,8.50
2023-05-25T04:30:50.233Z,8.90
2023-05-25T04:31:50.268Z,8.60
2023-05-25T04:32:50.304Z,8.40
2023-05-25T04:33:50.210Z,8.20
2023-05-25T04:34:50.195Z,8.30
2023-05-25T04:35:50.186Z,7.90
2023-05-25T04:36:50.195Z,7.80
2023-05-25T04:37:50.194Z,8.00
2023-05-25T04:38:50.181Z,7.80
2023-05-25T04:39:50.159Z,8.10
2023-05-25T04:40:50.150Z,8.10
2023-05-25T04:41:50.154Z,8.30
2023-05-25T04:42:50.169Z,7.50
2023-05-25T04:44:05.921Z,8.30
2023-05-25T04:44:52.140Z,8.10
2023-05-25T04:45:50.162Z,7.80
2023-05-25T04:46:50.135Z,8.20
2023-05-25T04:47:50.162Z,7.70
2023-05-25T04:48:50.098Z,7.80
2023-05-25T04:49:50.088Z,7.80
2023-05-25T04:50:50.110Z,8.30
2023-05-25T04:51:50.096Z,8.20
2023-05-25T04:52:50.070Z,7.80
2023-05-25T04:53:50.048Z,7.80
2023-05-25T04:54:50.047Z,7.90
2023-05-25T04:55:50.040Z,7.70
2023-05-25T04:56:50.057Z,7.60
2023-05-25T04:57:50.028Z,7.80
2023-05-25T04:58:50.030Z,7.60
2023-05-25T04:59:50.003Z,7.50
2023-05-25T05:00:52.501Z,7.50
2023-05-25T05:01:50.065Z,8.20
2023-05-25T05:02:50.101Z,7.70
2023-05-25T05:03:50.007Z,7.70
2023-05-25T05:04:49.973Z,7.90
2023-05-25T05:05:50.070Z,8.30
2023-05-25T05:06:49.980Z,7.90
2023-05-25T05:07:49.949Z,7.70
2023-05-25T05:08:49.939Z,8.00
2023-05-25T05:09:49.931Z,8.20
2023-05-25T05:10:49.999Z,7.80
2023-05-25T05:11:49.915Z,8.20
2023-05-25T05:12:49.929Z,8.10
2023-05-25T05:13:49.896Z,8.40
2023-05-25T05:14:49.891Z,8.50
2023-05-25T05:15:49.912Z,8.80
2023-05-25T05:16:49.894Z,9.10
2023-05-25T05:17:49.918Z,9.50
2023-05-25T05:18:49.858Z,9.30
2023-05-25T05:19:49.879Z,9.50
2023-05-25T05:20:49.878Z,8.80
2023-05-25T05:21:49.847Z,9.30
2023-05-25T05:22:49.835Z,9.00
2023-05-25T05:23:49.835Z,9.60
2023-05-25T05:24:49.859Z,9.20
2023-05-25T05:25:49.839Z,9.30
2023-05-25T05:26:58.513Z,9.10
2023-05-25T05:27:51.805Z,8.80
2023-05-25T05:28:49.790Z,8.80
2023-05-25T05:29:49.821Z,8.90
2023-05-25T05:30:49.783Z,9.30
2023-05-25T05:31:49.824Z,8.90
2023-05-25T05:32:49.806Z,9.60
2023-05-25T05:33:49.820Z,9.90
2023-05-25T05:34:49.779Z,9.60
2023-05-25T05:35:49.746Z,9.50
2023-05-25T05:36:58.181Z,9.40
2023-05-25T05:37:51.725Z,9.30
2023-05-25T05:38:49.750Z,9.00
2023-05-25T05:39:49.712Z,9.60
2023-05-25T05:40:49.699Z,9.20
2023-05-25T05:41:49.708Z,10.00
2023-05-25T05:42:49.790Z,10.00
2023-05-25T05:43:49.729Z,9.80
2023-05-25T05:44:49.698Z,10.50
2023-05-25T05:45:49.659Z,9.70
2023-05-25T05:46:49.752Z,10.30
2023-05-25T05:47:49.741Z,11.10
2023-05-25T05:48:49.717Z,10.40
2023-05-25T05:49:49.632Z,10.60
2023-05-25T05:50:49.633Z,11.20
2023-05-25T05:51:49.633Z,11.40
2023-05-25T05:52:49.635Z,12.00
2023-05-25T05:53:49.595Z,12.20
2023-05-25T05:54:49.610Z,13.30
2023-05-25T05:55:52.383Z,12.70
2023-05-25T05:56:49.584Z,13.10
2023-05-25T05:57:49.623Z,14.20
2023-05-25T05:58:49.581Z,14.40
2023-05-25T05:59:49.582Z,14.20
2023-05-25T06:00:49.561Z,13.70
2023-05-25T06:01:49.593Z,13.60
2023-05-25T06:02:49.761Z,13.90
2023-05-25T06:03:49.542Z,13.70
2023-05-25T06:04:49.526Z,13.20
2023-05-25T06:05:49.536Z,13.60
2023-05-25T06:06:49.542Z,13.60
2023-05-25T06:07:49.549Z,13.60
2023-05-25T06:08:49.490Z,13.90
2023-05-25T06:10:22.400Z,14.00
2023-05-25T06:10:49.472Z,15.40
2023-05-25T06:11:49.487Z,13.80
2023-05-25T06:12:49.458Z,14.10
2023-05-25T06:13:49.446Z,14.60
2023-05-25T06:14:49.442Z,13.60
2023-05-25T06:15:49.472Z,14.70
2023-05-25T06:16:49.511Z,14.70
2023-05-25T06:17:49.470Z,14.80
2023-05-25T06:18:49.400Z,14.50
2023-05-25T06:19:49.406Z,14.50
2023-05-25T06:20:49.382Z,15.20
2023-05-25T06:21:49.403Z,14.50
2023-05-25T06:22:49.375Z,14.70
2023-05-25T06:23:49.425Z,14.60
2023-05-25T06:24:49.357Z,14.90
2023-05-25T06:25:49.364Z,14.90
2023-05-25T06:26:49.400Z,15.00
2023-05-25T06:27:49.337Z,15.10
2023-05-25T06:28:49.317Z,15.00
2023-05-25T06:29:49.315Z,15.60
2023-05-25T06:30:49.356Z,15.30
2023-05-25T06:31:49.382Z,15.00
2023-05-25T06:32:49.371Z,15.20
2023-05-25T06:33:49.320Z,15.50
2023-05-25T06:34:49.269Z,15.60
2023-05-25T06:35:51.051Z,15.50
2023-05-25T06:36:49.273Z,15.30
2023-05-25T06:37:49.264Z,14.90
2023-05-25T06:38:49.252Z,15.10
2023-05-25T06:39:49.249Z,15.80
2023-05-25T06:40:49.249Z,15.40
2023-05-25T06:41:49.216Z,15.30
2023-05-25T06:42:49.222Z,15.80
2023-05-25T06:43:49.213Z,16.70
2023-05-25T06:44:49.201Z,16.70
2023-05-25T06:45:49.248Z,15.60
2023-05-25T06:46:49.250Z,15.90
2023-05-25T06:47:49.217Z,15.50
2023-05-25T06:48:49.208Z,15.20
2023-05-25T06:49:49.187Z,15.90
2023-05-25T06:50:49.203Z,18.00
2023-05-25T06:51:49.144Z,15.70
2023-05-25T06:52:49.149Z,15.00
2023-05-25T06:53:49.132Z,15.30
2023-05-25T06:54:49.162Z,15.70
2023-05-25T06:55:49.108Z,15.60
2023-05-25T06:56:49.119Z,15.40
2023-05-25T06:57:49.144Z,15.80
2023-05-25T06:58:49.087Z,15.90
2023-05-25T06:59:49.105Z,17.80
2023-05-25T07:00:49.085Z,17.20
2023-05-25T07:01:49.214Z,14.90
2023-05-25T07:02:49.104Z,15.50
2023-05-25T07:03:49.069Z,16.10
2023-05-25T07:04:49.094Z,15.90
2023-05-25T07:05:49.050Z,14.70
2023-05-25T07:06:49.032Z,15.50
2023-05-25T07:07:49.025Z,14.80
2023-05-25T07:08:49.033Z,15.30
2023-05-25T07:09:49.004Z,15.00
2023-05-25T07:10:50.325Z,16.50
2023-05-25T07:11:49.999Z,15.10
2023-05-25T07:12:49.011Z,14.50
2023-05-25T07:13:49.029Z,14.80
2023-05-25T07:14:49.017Z,14.70
2023-05-25T07:15:49.090Z,13.90
2023-05-25T07:16:48.961Z,14.30
2023-05-25T07:17:49.016Z,14.30
2023-05-25T07:18:49.008Z,13.70
2023-05-25T07:19:48.934Z,14.00
2023-05-25T07:20:48.936Z,14.50
2023-05-25T07:21:48.927Z,14.00
2023-05-25T07:22:48.945Z,13.70
2023-05-25T07:23:48.901Z,14.20
2023-05-25T07:24:48.896Z,13.60
2023-05-25T07:25:48.895Z,14.00
2023-05-25T07:26:48.877Z,14.30
2023-05-25T07:27:48.970Z,13.90
2023-05-25T07:28:48.872Z,15.20
2023-05-25T07:29:48.865Z,14.30
2023-05-25T07:30:48.845Z,14.30
2023-05-25T07:31:49.027Z,12.50
2023-05-25T07:32:48.877Z,13.20
2023-05-25T07:33:48.833Z,12.80
2023-05-25T07:34:48.814Z,12.70
2023-05-25T07:35:48.841Z,12.70
2023-05-25T07:36:48.845Z,12.20
2023-05-25T07:37:48.825Z,12.00
2023-05-25T07:38:48.793Z,12.10
2023-05-25T07:39:48.786Z,12.80
2023-05-25T07:40:48.776Z,11.90
2023-05-25T07:41:48.790Z,12.20
2023-05-25T07:42:48.774Z,11.90
2023-05-25T07:43:48.751Z,11.80
2023-05-25T07:44:48.747Z,12.80
2023-05-25T07:45:48.737Z,11.90
2023-05-25T07:46:48.795Z,12.50
2023-05-25T07:47:48.726Z,11.90
2023-05-25T07:48:48.705Z,11.20
2023-05-25T07:49:48.699Z,11.90
2023-05-25T07:50:48.721Z,11.30
2023-05-25T07:51:48.748Z,11.60
2023-05-25T07:52:48.679Z,11.80
2023-05-25T07:53:48.669Z,12.10
2023-05-25T07:54:48.666Z,11.60
2023-05-25T07:55:48.697Z,11.90
2023-05-25T07:56:48.660Z,11.80
2023-05-25T07:57:48.639Z,11.80
2023-05-25T07:58:48.635Z,11.60
2023-05-25T07:59:48.625Z,11.30
2023-05-25T08:00:48.653Z,10.90
2023-05-25T08:01:48.667Z,11.60
2023-05-25T08:02:48.773Z,12.10
2023-05-25T08:03:50.108Z,11.40
2023-05-25T08:04:49.633Z,11.30
2023-05-25T08:05:48.619Z,11.10
2023-05-25T08:06:48.572Z,11.00
2023-05-25T08:07:48.570Z,10.90
2023-05-25T08:08:48.565Z,11.00
2023-05-25T08:09:48.575Z,10.90
2023-05-25T08:10:48.564Z,10.80
2023-05-25T08:11:48.528Z,10.70
2023-05-25T08:12:50.618Z,11.00
2023-05-25T08:13:49.539Z,11.30
2023-05-25T08:14:48.524Z,10.60
2023-05-25T08:15:48.503Z,9.90
2023-05-25T08:16:48.505Z,10.20
2023-05-25T08:17:48.541Z,10.20
2023-05-25T08:18:48.487Z,10.10
2023-05-25T08:19:48.503Z,10.40
2023-05-25T08:20:48.572Z,10.30
2023-05-25T08:21:48.463Z,10.60
2023-05-25T08:22:48.447Z,11.20
2023-05-25T08:23:48.459Z,10.80
2023-05-25T08:24:48.462Z,10.50
2023-05-25T08:25:48.423Z,10.70
2023-05-25T08:26:54.855Z,10.60
2023-05-25T08:27:50.478Z,10.70
2023-05-25T08:28:48.425Z,10.80
2023-05-25T08:29:48.391Z,10.30
2023-05-25T08:30:48.398Z,10.50
2023-05-25T08:31:48.377Z,9.80
2023-05-25T08:32:48.373Z,9.70
2023-05-25T08:33:49.385Z,9.60
2023-05-25T08:34:48.376Z,10.40
2023-05-25T08:35:48.348Z,10.30
2023-05-25T08:36:48.339Z,10.10
2023-05-25T08:37:48.365Z,10.30
2023-05-25T08:38:48.358Z,10.50
2023-05-25T08:39:48.311Z,10.20
2023-05-25T08:40:48.301Z,9.60
2023-05-25T08:41:48.314Z,9.90
2023-05-25T08:42:48.315Z,8.90
2023-05-25T08:43:48.310Z,9.00
2023-05-25T08:44:48.279Z,9.50
2023-05-25T08:45:48.279Z,9.20
2023-05-25T08:46:48.272Z,10.00
2023-05-25T08:47:48.394Z,9.60
2023-05-25T08:48:48.292Z,9.20
2023-05-25T08:49:48.275Z,9.50
2023-05-25T08:50:48.222Z,8.90
2023-05-25T08:51:48.229Z,9.60
2023-05-25T08:52:48.239Z,9.00
2023-05-25T08:53:48.201Z,9.30
2023-05-25T08:54:48.203Z,9.10
2023-05-25T08:55:48.225Z,9.30
2023-05-25T08:56:48.184Z,9.00
2023-05-25T08:57:48.239Z,8.70
2023-05-25T08:58:48.170Z,9.40
2023-05-25T08:59:48.168Z,8.90
2023-05-25T09:00:48.153Z,8.90
2023-05-25T09:01:48.171Z,9.00
2023-05-25T09:02:48.256Z,9.20
2023-05-25T09:03:48.250Z,9.30
2023-05-25T09:04:48.119Z,8.70
2023-05-25T09:05:48.111Z,9.00
2023-05-25T09:06:57.341Z,9.30
2023-05-25T09:07:50.095Z,8.70
2023-05-25T09:08:48.094Z,9.00
2023-05-25T09:09:48.084Z,9.10
2023-05-25T09:10:48.069Z,8.80
2023-05-25T09:11:48.088Z,9.50
2023-05-25T09:12:48.078Z,8.70
2023-05-25T09:13:48.052Z,8.60
2023-05-25T09:14:48.370Z,8.60
2023-05-25T09:15:48.060Z,8.70
2023-05-25T09:16:48.102Z,8.70
2023-05-25T09:17:48.052Z,9.00
2023-05-25T09:18:48.025Z,9.20
2023-05-25T09:19:48.002Z,9.10
2023-05-25T09:20:48.250Z,9.20
2023-05-25T09:21:47.991Z,9.40
2023-05-25T09:22:47.979Z,8.60
2023-05-25T09:23:47.982Z,9.10
2023-05-25T09:24:47.969Z,9.20
2023-05-25T09:25:48.022Z,8.60
2023-05-25T09:26:48.303Z,8.10
2023-05-25T09:27:48.947Z,8.70
2023-05-25T09:28:47.962Z,10.20
2023-05-25T09:29:47.929Z,9.30
2023-05-25T09:30:47.964Z,10.00
2023-05-25T09:31:47.984Z,9.10
2023-05-25T09:32:47.948Z,9.50
2023-05-25T09:33:47.917Z,9.00
2023-05-25T09:34:47.922Z,9.00
2023-05-25T09:35:47.918Z,9.10
2023-05-25T09:36:48.126Z,9.50
2023-05-25T09:37:47.994Z,9.20
2023-05-25T09:38:48.081Z,9.10
2023-05-25T09:39:48.089Z,8.30
2023-05-25T09:40:48.081Z,8.50
2023-05-25T09:41:47.856Z,8.50
2023-05-25T09:42:47.877Z,8.30
2023-05-25T09:43:58.115Z,8.30
2023-05-25T09:44:48.846Z,8.90
2023-05-25T09:45:47.824Z,8.80
2023-05-25T09:46:47.815Z,9.20
2023-05-25T09:47:47.857Z,8.60
2023-05-25T09:48:47.853Z,8.30
2023-05-25T09:49:47.873Z,8.50
2023-05-25T09:50:49.724Z,9.60
2023-05-25T09:51:48.772Z,9.30
2023-05-25T09:52:47.765Z,9.80
2023-05-25T09:53:47.761Z,8.90
2023-05-25T09:54:47.775Z,9.10
2023-05-25T09:55:53.646Z,8.60
2023-05-25T09:56:49.731Z,8.90
2023-05-25T09:57:47.725Z,8.00
2023-05-25T09:58:47.751Z,8.70
2023-05-25T09:59:47.732Z,8.40
2023-05-25T10:00:47.711Z,9.00
2023-05-25T10:01:47.759Z,8.60
2023-05-25T10:02:47.731Z,8.70
2023-05-25T10:03:59.840Z,8.00
2023-05-25T10:04:49.771Z,8.60
2023-05-25T10:05:47.666Z,8.10
2023-05-25T10:06:47.653Z,8.30
2023-05-25T10:07:47.641Z,8.90
2023-05-25T10:08:47.673Z,8.40
2023-05-25T10:09:47.645Z,8.90
2023-05-25T10:10:47.650Z,8.30
2023-05-25T10:11:47.622Z,8.20
2023-05-25T10:12:48.115Z,8.00
2023-05-25T10:13:47.623Z,8.30
2023-05-25T10:14:47.587Z,8.70
2023-05-25T10:15:47.611Z,8.20
2023-05-25T10:16:47.592Z,8.50
2023-05-25T10:17:47.627Z,9.20
2023-05-25T10:18:47.572Z,8.50
2023-05-25T10:19:47.562Z,9.10
2023-05-25T10:20:47.591Z,9.10
2023-05-25T10:21:47.549Z,8.90
2023-05-25T10:22:47.560Z,8.40
2023-05-25T10:23:47.532Z,8.60
2023-05-25T10:24:47.541Z,8.80
2023-05-25T10:25:47.507Z,8.40
2023-05-25T10:26:47.524Z,8.80
2023-05-25T10:27:47.520Z,8.70
2023-05-25T10:28:47.498Z,7.90
2023-05-25T10:29:47.480Z,7.90
2023-05-25T10:30:47.495Z,8.10
2023-05-25T10:31:47.585Z,8.30
2023-05-25T10:32:47.557Z,8.30
2023-05-25T10:33:50.627Z,8.50
2023-05-25T10:34:49.438Z,8.00
2023-05-25T10:36:02.419Z,8.60
2023-05-25T10:36:49.446Z,8.60
2023-05-25T10:37:47.415Z,7.70
2023-05-25T10:38:47.453Z,8.20
2023-05-25T10:39:47.396Z,8.10
2023-05-25T10:40:47.401Z,9.70
2023-05-25T10:41:47.481Z,8.90
2023-05-25T10:42:47.393Z,8.90
2023-05-25T10:43:47.375Z,9.00
2023-05-25T10:44:47.367Z,9.30
2023-05-25T10:45:47.454Z,9.20
2023-05-25T10:46:47.493Z,9.00
2023-05-25T10:47:47.381Z,8.80
2023-05-25T10:48:47.330Z,8.70
2023-05-25T10:49:47.329Z,8.50
2023-05-25T10:50:47.345Z,8.60
2023-05-25T10:51:47.343Z,8.80
2023-05-25T10:52:47.491Z,8.90
2023-05-25T10:53:47.307Z,9.00
2023-05-25T10:54:47.290Z,8.90
2023-05-25T10:55:47.612Z,8.80
2023-05-25T10:56:47.303Z,8.50
2023-05-25T10:57:47.275Z,8.30
2023-05-25T10:58:47.268Z,8.20
2023-05-25T10:59:47.246Z,9.10
2023-05-25T11:00:47.293Z,8.70
2023-05-25T11:01:47.310Z,8.80
2023-05-25T11:02:47.283Z,9.20
2023-05-25T11:03:47.333Z,8.30
2023-05-25T11:04:47.213Z,8.90
2023-05-25T11:05:47.366Z,8.70
2023-05-25T11:06:47.204Z,9.10
2023-05-25T11:07:47.180Z,8.70
2023-05-25T11:08:47.179Z,8.40
2023-05-25T11:09:47.190Z,9.00
2023-05-25T11:10:47.187Z,8.50
2023-05-25T11:11:48.177Z,8.70
2023-05-25T11:12:47.142Z,8.80
2023-05-25T11:13:47.136Z,8.10
2023-05-25T11:14:47.198Z,9.00
2023-05-25T11:15:47.162Z,8.50
2023-05-25T11:16:47.154Z,8.30
2023-05-25T11:17:47.142Z,8.20
2023-05-25T11:18:47.199Z,8.20
2023-05-25T11:19:48.745Z,7.50
2023-05-25T11:20:47.248Z,8.00
2023-05-25T11:21:47.132Z,8.20
2023-05-25T11:22:47.078Z,8.20
2023-05-25T11:23:47.099Z,8.00
2023-05-25T11:24:47.079Z,8.30
2023-05-25T11:25:47.276Z,7.20
2023-05-25T11:26:47.054Z,7.30
2023-05-25T11:27:47.032Z,7.20
2023-05-25T11:28:47.065Z,7.10
2023-05-25T11:29:47.019Z,7.30
2023-05-25T11:30:47.031Z,7.00
2023-05-25T11:31:47.137Z,6.80
2023-05-25T11:32:47.045Z,7.20
2023-05-25T11:33:47.017Z,7.20
2023-05-25T11:34:46.994Z,6.90
2023-05-25T11:35:47.097Z,6.80
2023-05-25T11:36:46.973Z,7.00
2023-05-25T11:37:46.981Z,6.70
2023-05-25T11:38:56.220Z,6.80
2023-05-25T11:39:48.949Z,6.80
2023-05-25T11:40:46.938Z,6.70
2023-05-25T11:41:46.930Z,7.20
2023-05-25T11:42:46.942Z,7.00
2023-05-25T11:43:46.950Z,6.80
2023-05-25T11:44:46.908Z,6.70
2023-05-25T11:45:46.904Z,6.90
2023-05-25T11:46:46.987Z,7.20
2023-05-25T11:47:46.914Z,6.90
2023-05-25T11:48:46.879Z,6.90
2023-05-25T11:49:46.878Z,6.70
2023-05-25T11:50:46.999Z,6.60
2023-05-25T11:51:46.858Z,7.00
2023-05-25T11:52:46.911Z,6.60
2023-05-25T11:53:46.840Z,6.60
2023-05-25T11:54:46.886Z,6.70
2023-05-25T11:55:46.897Z,6.90
2023-05-25T11:56:46.855Z,6.60
2023-05-25T11:57:46.853Z,6.80
2023-05-25T11:58:46.799Z,6.80
2023-05-25T11:59:46.797Z,6.70
2023-05-25T12:00:46.778Z,6.70
2023-05-25T12:01:46.847Z,6.80
2023-05-25T12:02:46.933Z,6.70
2023-05-25T12:03:46.868Z,7.10
2023-05-25T12:04:46.856Z,6.90
2023-05-25T12:05:46.992Z,6.90
2023-05-25T12:06:46.766Z,6.70
2023-05-25T12:07:46.855Z,6.60
2023-05-25T12:08:46.757Z,7.10
2023-05-25T12:10:19.516Z,7.00
2023-05-25T12:10:48.402Z,6.70
2023-05-25T12:11:46.750Z,7.00
2023-05-25T12:12:46.686Z,7.40
2023-05-25T12:13:46.717Z,7.80
2023-05-25T12:14:46.676Z,7.40
2023-05-25T12:15:46.711Z,7.70
2023-05-25T12:16:46.713Z,7.10
2023-05-25T12:17:46.722Z,7.60
2023-05-25T12:18:46.654Z,7.60
2023-05-25T12:19:46.633Z,7.20
2023-05-25T12:20:46.972Z,7.00
2023-05-25T12:21:46.643Z,7.20
2023-05-25T12:22:46.794Z,6.70
2023-05-25T12:23:46.598Z,6.70
2023-05-25T12:24:46.627Z,7.00
2023-05-25T12:25:51.011Z,6.60
2023-05-25T12:26:47.587Z,6.30
2023-05-25T12:27:46.581Z,6.40
2023-05-25T12:28:46.566Z,6.30
2023-05-25T12:29:46.581Z,6.80
2023-05-25T12:30:46.600Z,6.70
2023-05-25T12:31:46.539Z,6.10
2023-05-25T12:32:46.566Z,7.50
2023-05-25T12:33:46.559Z,7.10
2023-05-25T12:34:46.566Z,6.80
2023-05-25T12:35:46.633Z,7.60
2023-05-25T12:36:46.500Z,7.60
2023-05-25T12:37:46.498Z,7.10
2023-05-25T12:38:46.517Z,7.00
2023-05-25T12:39:46.521Z,7.20
2023-05-25T12:40:46.611Z,6.90
2023-05-25T12:41:46.512Z,6.30
2023-05-25T12:42:46.468Z,6.80
2023-05-25T12:43:46.528Z,6.40
2023-05-25T12:44:46.553Z,6.30
2023-05-25T12:45:46.466Z,6.80
2023-05-25T12:46:47.474Z,6.50
2023-05-25T12:47:46.493Z,6.70
2023-05-25T12:48:46.439Z,6.50
2023-05-25T12:49:46.400Z,6.90
2023-05-25T12:51:46.384Z,6.70
2023-05-25T12:52:46.409Z,6.60
2023-05-25T12:53:46.395Z,6.70
2023-05-25T12:54:46.363Z,6.90
2023-05-25T12:55:46.352Z,6.80
2023-05-25T12:56:47.365Z,6.30
2023-05-25T12:57:46.368Z,6.60
2023-05-25T12:58:46.335Z,6.60
2023-05-25T12:59:46.322Z,6.60
2023-05-25T13:00:46.619Z,6.60
2023-05-25T13:01:46.331Z,6.60
2023-05-25T13:02:47.977Z,6.60
2023-05-25T13:03:46.296Z,6.60
2023-05-25T13:04:46.322Z,6.50
2023-05-25T13:05:46.373Z,6.80
2023-05-25T13:06:46.270Z,6.70
2023-05-25T13:07:46.300Z,6.40
2023-05-25T13:08:47.471Z,6.50
2023-05-25T13:09:46.289Z,6.20
2023-05-25T13:10:46.378Z,6.50
2023-05-25T13:11:46.258Z,6.30
2023-05-25T13:12:46.252Z,6.60
2023-05-25T13:13:46.241Z,6.40